createdAt,value
2022-10-15T00:01:07.107Z,17.07
2022-10-15T00:03:38.753Z,17.24
2022-10-15T00:06:07.830Z,17.35
2022-10-15T00:08:35.675Z,16.70
2022-10-15T00:11:04.869Z,17.19
2022-10-15T00:13:33.011Z,16.95
2022-10-15T00:16:01.357Z,16.78
2022-10-15T00:18:29.044Z,16.96
2022-10-15T00:20:57.784Z,16.91
2022-10-15T00:23:25.255Z,17.07
2022-10-15T00:26:02.410Z,16.71
2022-10-15T00:28:33.433Z,16.66
2022-10-15T00:33:36.330Z,16.72
2022-10-15T00:36:07.255Z,16.90
2022-10-15T00:38:35.169Z,16.77
2022-10-15T00:41:03.652Z,16.96
2022-10-15T00:43:42.087Z,16.85
2022-10-15T00:46:18.022Z,17.00
2022-10-15T00:48:49.455Z,16.95
2022-10-15T00:51:20.241Z,16.98
2022-10-15T00:53:53.364Z,16.94
2022-10-15T00:56:24.363Z,16.86
2022-10-15T00:58:54.327Z,16.89
2022-10-15T01:01:23.330Z,16.83
2022-10-15T01:03:50.806Z,16.72
2022-10-15T01:06:19.660Z,16.22
2022-10-15T01:08:47.211Z,16.15
2022-10-15T01:11:29.613Z,16.61
2022-10-15T01:14:08.215Z,16.71
2022-10-15T01:16:44.402Z,16.87
2022-10-15T01:19:24.740Z,16.68
2022-10-15T01:22:02.820Z,16.93
2022-10-15T01:24:45.329Z,16.85
2022-10-15T01:27:26.544Z,17.00
2022-10-15T01:30:17.831Z,16.97
2022-10-15T01:32:54.555Z,16.91
2022-10-15T01:35:32.883Z,16.95
2022-10-15T01:38:09.424Z,16.93
2022-10-15T01:40:45.563Z,16.82
2022-10-15T01:43:17.599Z,16.89
2022-10-15T01:45:50.144Z,16.63
2022-10-15T01:48:19.503Z,16.87
2022-10-15T01:50:51.758Z,16.71
2022-10-15T01:53:26.790Z,16.83
2022-10-15T01:55:59.012Z,16.95
2022-10-15T01:58:28.683Z,16.87
2022-10-15T02:00:58.689Z,16.84
2022-10-15T02:03:26.498Z,16.58
2022-10-15T02:05:59.310Z,16.83
2022-10-15T02:08:35.640Z,17.25
2022-10-15T02:11:06.773Z,16.60
2022-10-15T02:13:43.589Z,16.92
2022-10-15T02:16:19.143Z,17.15
2022-10-15T02:18:52.816Z,17.07
2022-10-15T02:21:23.620Z,17.19
2022-10-15T02:23:54.348Z,17.61
2022-10-15T02:26:25.388Z,17.60
2022-10-15T02:28:57.498Z,17.48
2022-10-15T02:31:31.036Z,17.47
2022-10-15T02:34:04.493Z,17.46
2022-10-15T02:36:32.080Z,16.78
2022-10-15T02:39:00.821Z,17.10
2022-10-15T02:41:30.146Z,17.05
2022-10-15T02:43:57.573Z,17.11
2022-10-15T02:46:25.005Z,16.90
2022-10-15T02:48:53.837Z,16.77
2022-10-15T02:51:21.256Z,16.69
2022-10-15T02:53:48.637Z,16.90
2022-10-15T02:56:16.097Z,16.98
2022-10-15T02:58:43.498Z,16.95
2022-10-15T03:01:10.898Z,16.36
2022-10-15T03:03:38.322Z,16.69
2022-10-15T03:06:07.622Z,16.78
2022-10-15T03:08:35.136Z,16.81
2022-10-15T03:11:03.415Z,16.57
2022-10-15T03:13:30.972Z,16.66
2022-10-15T03:15:58.459Z,16.74
2022-10-15T03:18:26.531Z,16.72
2022-10-15T03:20:55.091Z,16.62
2022-10-15T03:23:24.364Z,16.52
2022-10-15T03:25:52.520Z,16.65
2022-10-15T03:28:19.996Z,16.65
2022-10-15T03:30:47.762Z,16.74
2022-10-15T03:33:15.627Z,16.76
2022-10-15T03:35:43.011Z,16.14
2022-10-15T03:38:10.410Z,16.45
2022-10-15T03:40:39.146Z,16.59
2022-10-15T03:43:06.811Z,16.59
2022-10-15T03:45:34.223Z,16.59
2022-10-15T03:48:01.623Z,16.66
2022-10-15T03:50:29.024Z,16.57
2022-10-15T03:52:56.424Z,16.48
2022-10-15T03:55:23.844Z,16.59
2022-10-15T03:57:52.533Z,16.49
2022-10-15T04:00:20.040Z,16.52
2022-10-15T04:02:47.441Z,16.40
2022-10-15T04:05:14.916Z,16.59
2022-10-15T04:07:42.790Z,16.48
2022-10-15T04:10:10.563Z,16.51
2022-10-15T04:12:37.956Z,16.53
2022-10-15T04:15:07.853Z,16.49
2022-10-15T04:17:35.274Z,16.42
2022-10-15T04:20:02.866Z,16.62
2022-10-15T04:22:30.311Z,16.49
2022-10-15T04:24:57.687Z,16.49
2022-10-15T04:27:25.086Z,16.63
2022-10-15T04:29:52.448Z,16.54
2022-10-15T04:32:21.356Z,16.56
2022-10-15T04:34:49.112Z,16.49
2022-10-15T04:37:16.585Z,16.43
2022-10-15T04:39:43.953Z,16.46
2022-10-15T04:42:11.388Z,16.37
2022-10-15T04:44:38.749Z,16.42
2022-10-15T04:47:06.246Z,16.48
2022-10-15T04:49:34.931Z,16.40
2022-10-15T04:52:02.318Z,16.49
2022-10-15T04:54:29.770Z,16.13
2022-10-15T04:56:57.219Z,16.21
2022-10-15T04:59:24.632Z,16.19
2022-10-15T05:01:52.065Z,15.95
2022-10-15T05:04:19.559Z,16.33
2022-10-15T05:06:48.229Z,16.54
2022-10-15T05:09:15.740Z,16.25
2022-10-15T05:11:43.177Z,16.42
2022-10-15T05:14:10.622Z,16.45
2022-10-15T05:16:37.986Z,16.20
2022-10-15T05:19:07.991Z,16.38
2022-10-15T05:21:36.446Z,16.69
2022-10-15T05:24:06.362Z,16.42
2022-10-15T05:26:33.787Z,16.04
2022-10-15T05:29:01.985Z,16.25
2022-10-15T05:31:31.617Z,16.24
2022-10-15T05:33:59.567Z,16.07
2022-10-15T05:36:29.204Z,16.13
2022-10-15T05:38:58.814Z,16.13
2022-10-15T05:41:29.168Z,16.47
2022-10-15T05:43:58.993Z,16.47
2022-10-15T05:46:27.825Z,16.57
2022-10-15T05:48:56.983Z,16.58
2022-10-15T05:51:25.483Z,16.22
2022-10-15T05:53:53.543Z,16.39
2022-10-15T05:56:21.124Z,16.51
2022-10-15T05:58:50.361Z,16.52
2022-10-15T06:01:18.304Z,16.59
2022-10-15T06:03:45.688Z,16.19
2022-10-15T06:06:19.191Z,15.95
2022-10-15T06:08:48.650Z,16.06
2022-10-15T06:11:16.318Z,15.89
2022-10-15T06:13:44.768Z,15.79
2022-10-15T06:16:16.644Z,15.98
2022-10-15T06:18:46.983Z,15.65
2022-10-15T06:21:14.479Z,15.39
2022-10-15T06:23:41.864Z,16.16
2022-10-15T06:26:11.336Z,15.99
2022-10-15T06:28:39.906Z,16.23
2022-10-15T06:31:08.112Z,16.29
2022-10-15T06:33:37.422Z,16.05
2022-10-15T06:36:07.099Z,15.93
2022-10-15T06:38:35.161Z,15.81
2022-10-15T06:41:05.122Z,16.27
2022-10-15T06:43:34.776Z,16.68
2022-10-15T06:46:04.075Z,16.83
2022-10-15T06:48:32.644Z,17.01
2022-10-15T06:51:02.278Z,17.04
2022-10-15T06:53:30.619Z,17.21
2022-10-15T06:55:58.942Z,17.07
2022-10-15T06:58:26.673Z,17.05
2022-10-15T07:00:54.271Z,17.17
2022-10-15T07:03:21.700Z,17.23
2022-10-15T07:05:49.141Z,17.06
2022-10-15T07:08:19.337Z,17.12
2022-10-15T07:10:47.228Z,16.94
2022-10-15T07:13:14.641Z,17.18
2022-10-15T07:15:42.106Z,17.29
2022-10-15T07:18:09.471Z,17.23
2022-10-15T07:20:36.879Z,17.31
2022-10-15T07:23:04.933Z,17.36
2022-10-15T07:25:34.518Z,17.50
2022-10-15T07:28:01.886Z,17.38
2022-10-15T07:30:29.448Z,17.39
2022-10-15T07:32:57.584Z,17.51
2022-10-15T07:35:25.056Z,17.70
2022-10-15T07:37:52.483Z,17.77
2022-10-15T07:40:20.070Z,17.67
2022-10-15T07:42:55.537Z,17.80
2022-10-15T07:45:22.989Z,17.89
2022-10-15T07:47:50.682Z,17.88
2022-10-15T07:50:18.393Z,17.89
2022-10-15T07:52:45.863Z,17.90
2022-10-15T07:55:13.786Z,17.84
2022-10-15T07:57:41.254Z,18.06
2022-10-15T08:00:11.538Z,18.05
2022-10-15T08:02:38.965Z,18.22
2022-10-15T08:05:07.239Z,18.28
2022-10-15T08:07:34.722Z,18.29
2022-10-15T08:10:02.421Z,18.61
2022-10-15T08:12:29.888Z,19.31
2022-10-15T08:14:57.264Z,19.44
2022-10-15T08:17:25.999Z,19.51
2022-10-15T08:19:53.432Z,19.04
2022-10-15T08:22:20.968Z,19.39
2022-10-15T08:24:48.683Z,19.58
2022-10-15T08:27:16.153Z,19.84
2022-10-15T08:29:43.538Z,19.60
2022-10-15T08:32:11.108Z,19.92
2022-10-15T08:34:39.845Z,19.51
2022-10-15T08:37:07.331Z,19.96
2022-10-15T08:39:34.797Z,20.32
2022-10-15T08:42:05.365Z,20.39
2022-10-15T08:44:39.312Z,20.03
2022-10-15T08:47:11.491Z,19.83
2022-10-15T08:49:46.138Z,19.58
2022-10-15T08:52:21.123Z,19.86
2022-10-15T08:54:48.755Z,19.88
2022-10-15T08:57:35.940Z,19.56
2022-10-15T09:00:05.786Z,19.66
2022-10-15T09:02:40.309Z,19.96
2022-10-15T09:05:27.795Z,19.96
2022-10-15T09:08:01.894Z,20.00
2022-10-15T09:10:37.243Z,19.99
2022-10-15T09:13:13.891Z,19.67
2022-10-15T09:15:50.222Z,20.16
2022-10-15T09:18:22.682Z,20.18
2022-10-15T09:20:52.135Z,19.95
2022-10-15T09:23:23.384Z,20.16
2022-10-15T09:25:57.214Z,19.26
2022-10-15T09:28:32.410Z,19.20
2022-10-15T09:31:00.913Z,18.93
2022-10-15T09:33:39.144Z,18.81
2022-10-15T09:36:18.171Z,18.55
2022-10-15T09:38:58.057Z,19.24
2022-10-15T09:41:35.127Z,19.49
2022-10-15T09:44:05.682Z,19.29
2022-10-15T09:46:34.725Z,19.25
2022-10-15T09:49:08.034Z,19.51
2022-10-15T09:51:45.323Z,18.98
2022-10-15T09:54:24.011Z,19.76
2022-10-15T09:56:55.037Z,19.99
2022-10-15T09:59:24.127Z,20.03
2022-10-15T10:01:59.660Z,20.33
2022-10-15T10:04:29.008Z,20.19
2022-10-15T10:07:00.195Z,20.13
2022-10-15T10:09:32.502Z,19.64
2022-10-15T10:12:02.671Z,20.33
2022-10-15T10:14:33.139Z,20.45
2022-10-15T10:17:17.713Z,20.19
2022-10-15T10:19:46.568Z,20.33
2022-10-15T10:22:18.667Z,20.05
2022-10-15T10:24:46.845Z,20.15
2022-10-15T10:27:20.912Z,19.67
2022-10-15T10:29:52.123Z,20.21
2022-10-15T10:32:21.828Z,20.23
2022-10-15T10:34:52.624Z,20.41
2022-10-15T10:37:22.719Z,20.18
2022-10-15T10:39:54.282Z,19.60
2022-10-15T10:42:33.695Z,19.81
2022-10-15T10:45:19.823Z,20.23
2022-10-15T10:47:47.920Z,20.42
2022-10-15T10:50:31.437Z,20.57
2022-10-15T10:53:15.479Z,20.37
2022-10-15T10:55:43.770Z,19.55
2022-10-15T10:58:22.093Z,19.61
2022-10-15T11:00:55.620Z,20.03
2022-10-15T11:03:36.003Z,20.46
2022-10-15T11:06:17.326Z,20.41
2022-10-15T11:08:56.518Z,19.77
2022-10-15T11:11:31.906Z,20.08
2022-10-15T11:14:07.947Z,20.60
2022-10-15T11:16:43.728Z,20.84
2022-10-15T11:19:50.297Z,20.76
2022-10-15T11:22:30.276Z,20.90
2022-10-15T11:25:12.325Z,20.69
2022-10-15T11:27:54.856Z,20.17
2022-10-15T11:30:35.769Z,20.72
2022-10-15T11:33:17.450Z,20.55
2022-10-15T11:35:53.671Z,20.53
2022-10-15T11:38:33.546Z,20.33
2022-10-15T11:41:30.321Z,20.66
2022-10-15T11:44:33.520Z,20.78
2022-10-15T11:47:11.415Z,21.00
2022-10-15T11:49:48.035Z,21.00
2022-10-15T11:52:35.476Z,20.83
2022-10-15T11:55:09.475Z,20.99
2022-10-15T11:57:40.321Z,20.77
2022-10-15T12:00:20.253Z,21.12
2022-10-15T12:02:50.321Z,21.02
2022-10-15T12:05:20.815Z,20.83
2022-10-15T12:07:50.229Z,20.96
2022-10-15T12:10:32.096Z,21.28
2022-10-15T12:13:05.495Z,21.08
2022-10-15T12:15:41.228Z,21.18
2022-10-15T12:18:18.533Z,21.43
2022-10-15T12:20:46.656Z,20.92
2022-10-15T12:23:26.977Z,20.84
2022-10-15T12:25:54.479Z,20.70
2022-10-15T12:28:25.018Z,21.08
2022-10-15T12:31:01.485Z,20.93
2022-10-15T12:33:37.561Z,21.14
2022-10-15T12:36:09.816Z,20.84
2022-10-15T12:38:40.775Z,20.99
2022-10-15T12:41:10.336Z,21.13
2022-10-15T12:43:41.991Z,21.32
2022-10-15T12:46:11.433Z,21.00
2022-10-15T12:48:41.344Z,21.01
2022-10-15T12:51:30.534Z,21.25
2022-10-15T12:54:00.292Z,20.75
2022-10-15T12:56:37.856Z,20.98
2022-10-15T12:59:31.870Z,21.27
2022-10-15T13:01:59.345Z,20.66
2022-10-15T13:04:38.979Z,20.95
2022-10-15T13:07:06.607Z,20.96
2022-10-15T13:09:34.151Z,20.68
2022-10-15T13:12:02.784Z,20.30
2022-10-15T13:14:36.117Z,20.77
2022-10-15T13:17:07.075Z,20.71
2022-10-15T13:19:38.934Z,20.68
2022-10-15T13:22:20.808Z,21.00
2022-10-15T13:24:48.475Z,21.00
2022-10-15T13:27:17.240Z,21.00
2022-10-15T13:29:57.125Z,21.13
2022-10-15T13:32:26.773Z,21.09
2022-10-15T13:34:56.042Z,20.98
2022-10-15T13:37:30.007Z,21.00
2022-10-15T13:39:58.072Z,20.73
2022-10-15T13:42:27.584Z,21.06
2022-10-15T13:45:01.904Z,20.66
2022-10-15T13:47:33.141Z,20.88
2022-10-15T13:50:21.975Z,20.75
2022-10-15T13:52:53.274Z,20.74
2022-10-15T13:55:25.040Z,20.58
2022-10-15T13:57:57.315Z,20.23
2022-10-15T14:00:30.081Z,20.73
2022-10-15T14:03:19.209Z,20.28
2022-10-15T14:05:48.151Z,20.64
2022-10-15T14:08:18.018Z,20.60
2022-10-15T14:10:45.515Z,20.62
2022-10-15T14:13:13.015Z,20.45
2022-10-15T14:15:44.724Z,20.58
2022-10-15T14:18:14.625Z,20.95
2022-10-15T14:20:45.771Z,20.61
2022-10-15T14:23:23.887Z,20.40
2022-10-15T14:25:57.073Z,20.45
2022-10-15T14:28:26.184Z,20.22
2022-10-15T14:30:55.944Z,20.62
2022-10-15T14:33:43.228Z,20.57
2022-10-15T14:36:23.494Z,20.66
2022-10-15T14:38:52.230Z,20.48
2022-10-15T14:41:26.702Z,20.75
2022-10-15T14:44:17.490Z,20.81
2022-10-15T14:46:48.421Z,20.18
2022-10-15T14:49:20.036Z,20.25
2022-10-15T14:51:55.318Z,20.45
2022-10-15T14:54:26.525Z,20.51
2022-10-15T14:56:54.042Z,20.57
2022-10-15T14:59:23.299Z,19.99
2022-10-15T15:02:01.646Z,20.01
2022-10-15T15:04:40.137Z,19.82
2022-10-15T15:07:13.205Z,20.01
2022-10-15T15:09:41.907Z,19.99
2022-10-15T15:12:21.696Z,20.17
2022-10-15T15:14:52.102Z,19.73
2022-10-15T15:17:23.375Z,20.25
2022-10-15T15:19:53.109Z,20.17
2022-10-15T15:22:28.131Z,20.21
2022-10-15T15:24:55.979Z,20.04
2022-10-15T15:27:26.868Z,20.46
2022-10-15T15:29:55.199Z,19.92
2022-10-15T15:32:25.285Z,20.05
2022-10-15T15:34:54.922Z,20.02
2022-10-15T15:37:24.252Z,20.41
2022-10-15T15:39:52.391Z,20.18
2022-10-15T15:42:22.138Z,20.26
2022-10-15T15:44:50.463Z,20.24
2022-10-15T15:47:18.109Z,20.08
2022-10-15T15:49:46.803Z,20.21
2022-10-15T15:52:16.904Z,19.91
2022-10-15T15:54:45.310Z,20.10
2022-10-15T15:57:12.913Z,19.91
2022-10-15T15:59:40.368Z,19.58
2022-10-15T16:02:08.076Z,19.72
2022-10-15T16:04:35.728Z,19.93
2022-10-15T16:07:04.541Z,19.71
2022-10-15T16:09:31.948Z,19.87
2022-10-15T16:12:01.331Z,19.82
2022-10-15T16:14:28.929Z,19.70
2022-10-15T16:16:56.427Z,19.50
2022-10-15T16:19:23.870Z,19.66
2022-10-15T16:21:51.312Z,19.33
2022-10-15T16:24:20.101Z,19.05
2022-10-15T16:26:47.541Z,18.82
2022-10-15T16:29:16.895Z,19.21
2022-10-15T16:31:44.399Z,19.31
2022-10-15T16:34:11.864Z,19.19
2022-10-15T16:36:40.094Z,19.22
2022-10-15T16:39:07.575Z,19.36
2022-10-15T16:41:36.278Z,19.51
2022-10-15T16:44:03.723Z,19.26
2022-10-15T16:46:31.196Z,19.25
2022-10-15T16:48:59.006Z,19.24
2022-10-15T16:51:27.631Z,19.13
2022-10-15T16:53:55.755Z,19.24
2022-10-15T16:56:25.860Z,19.08
2022-10-15T16:58:56.118Z,19.24
2022-10-15T17:01:26.086Z,19.18
2022-10-15T17:03:53.585Z,19.18
2022-10-15T17:06:23.101Z,19.13
2022-10-15T17:08:52.870Z,19.12
2022-10-15T17:11:22.553Z,19.03
2022-10-15T17:13:52.247Z,19.08
2022-10-15T17:16:22.789Z,19.17
2022-10-15T17:21:21.176Z,18.95
2022-10-15T17:23:49.427Z,19.14
2022-10-15T17:26:19.969Z,19.06
2022-10-15T17:28:49.783Z,19.15
2022-10-15T17:31:19.282Z,19.30
2022-10-15T17:33:49.445Z,19.83
2022-10-15T17:36:19.342Z,19.69
2022-10-15T17:38:47.509Z,19.82
2022-10-15T17:41:16.653Z,19.59
2022-10-15T17:43:44.843Z,19.73
2022-10-15T17:46:14.873Z,19.57
2022-10-15T17:48:42.984Z,19.64
2022-10-15T17:51:14.622Z,19.56
2022-10-15T17:53:42.597Z,19.23
2022-10-15T17:56:11.377Z,19.54
2022-10-15T17:58:38.963Z,19.51
2022-10-15T18:01:06.709Z,19.59
2022-10-15T18:03:34.093Z,19.30
2022-10-15T18:06:07.679Z,19.50
2022-10-15T18:08:36.458Z,19.25
2022-10-15T18:11:04.339Z,18.97
2022-10-15T18:13:32.120Z,19.37
2022-10-15T18:16:00.252Z,18.98
2022-10-15T18:18:28.216Z,19.20
2022-10-15T18:20:56.198Z,19.02
2022-10-15T18:23:24.842Z,18.91
2022-10-15T18:26:02.628Z,19.52
2022-10-15T18:28:30.219Z,19.76
2022-10-15T18:30:57.763Z,19.37
2022-10-15T18:33:25.225Z,19.17
2022-10-15T18:35:53.866Z,19.26
2022-10-15T18:38:21.521Z,19.24
2022-10-15T18:40:49.055Z,19.06
2022-10-15T18:43:20.195Z,19.35
2022-10-15T18:45:47.675Z,19.49
2022-10-15T18:48:15.364Z,19.20
2022-10-15T18:50:44.072Z,19.04
2022-10-15T18:53:11.998Z,19.40
2022-10-15T18:55:39.602Z,19.41
2022-10-15T18:58:07.216Z,19.41
2022-10-15T19:00:37.043Z,19.25
2022-10-15T19:03:04.786Z,19.11
2022-10-15T19:05:32.351Z,19.45
2022-10-15T19:08:01.023Z,19.25
2022-10-15T19:10:28.497Z,19.22
2022-10-15T19:12:56.054Z,19.30
2022-10-15T19:15:23.492Z,18.90
2022-10-15T19:17:52.234Z,19.12
2022-10-15T19:20:19.987Z,18.29
2022-10-15T19:22:47.410Z,18.86
2022-10-15T19:25:14.911Z,19.32
2022-10-15T19:27:42.546Z,19.21
2022-10-15T19:30:10.889Z,19.24
2022-10-15T19:32:38.466Z,19.43
2022-10-15T19:35:08.295Z,19.81
2022-10-15T19:37:35.720Z,19.95
2022-10-15T19:40:03.635Z,19.57
2022-10-15T19:42:31.100Z,19.90
2022-10-15T19:44:58.526Z,19.79
2022-10-15T19:47:26.347Z,19.80
2022-10-15T19:49:55.186Z,20.02
2022-10-15T19:52:24.008Z,19.69
2022-10-15T19:54:51.544Z,19.81
2022-10-15T19:57:18.952Z,19.69
2022-10-15T19:59:46.337Z,19.78
2022-10-15T20:02:13.823Z,20.00
2022-10-15T20:04:41.279Z,19.87
2022-10-15T20:07:08.860Z,19.65
2022-10-15T20:09:37.754Z,19.45
2022-10-15T20:12:05.418Z,19.60
2022-10-15T20:14:33.504Z,19.72
2022-10-15T20:17:00.891Z,19.45
2022-10-15T20:19:28.300Z,19.88
2022-10-15T20:21:55.785Z,19.59
2022-10-15T20:24:23.203Z,19.42
2022-10-15T20:26:52.078Z,18.75
2022-10-15T20:29:19.622Z,19.18
2022-10-15T20:31:47.037Z,19.23
2022-10-15T20:34:14.574Z,19.45
2022-10-15T20:36:41.999Z,19.48
2022-10-15T20:39:09.404Z,18.65
2022-10-15T20:41:36.896Z,19.05
2022-10-15T20:44:05.670Z,19.33
2022-10-15T20:46:37.789Z,19.10
2022-10-15T20:49:09.332Z,18.98
2022-10-15T20:51:39.872Z,19.00
2022-10-15T20:54:07.741Z,18.70
2022-10-15T20:56:35.416Z,18.92
2022-10-15T20:59:04.252Z,18.98
2022-10-15T21:01:33.168Z,19.07
2022-10-15T21:04:00.815Z,19.17
2022-10-15T21:06:28.238Z,19.09
2022-10-15T21:08:55.728Z,18.87
2022-10-15T21:11:24.415Z,18.33
2022-10-15T21:13:52.013Z,17.58
2022-10-15T21:16:22.204Z,17.98
2022-10-15T21:18:52.091Z,17.45
2022-10-15T21:21:19.654Z,18.33
2022-10-15T21:23:47.079Z,17.80
2022-10-15T21:26:17.991Z,17.86
2022-10-15T21:28:46.342Z,17.66
2022-10-15T21:31:18.494Z,17.77
2022-10-15T21:33:46.412Z,17.62
2022-10-15T21:36:18.473Z,18.06
2022-10-15T21:38:46.102Z,18.50
2022-10-15T21:41:13.505Z,18.43
2022-10-15T21:43:40.937Z,18.70
2022-10-15T21:46:11.904Z,18.43
2022-10-15T21:48:40.400Z,17.75
2022-10-15T21:51:12.145Z,18.25
2022-10-15T21:53:41.392Z,18.64
2022-10-15T21:56:09.223Z,18.71
2022-10-15T21:58:38.066Z,18.35
2022-10-15T22:01:11.192Z,18.45
2022-10-15T22:03:40.184Z,18.41
2022-10-15T22:06:09.426Z,18.77
2022-10-15T22:08:37.180Z,18.63
2022-10-15T22:11:13.853Z,18.65
2022-10-15T22:13:42.930Z,18.17
2022-10-15T22:16:11.650Z,18.42
2022-10-15T22:18:40.065Z,17.97
2022-10-15T22:21:15.244Z,17.91
2022-10-15T22:23:43.887Z,18.44
2022-10-15T22:26:13.322Z,18.33
2022-10-15T22:28:41.119Z,18.21
2022-10-15T22:31:11.305Z,18.61
2022-10-15T22:33:38.861Z,18.80
2022-10-15T22:36:13.118Z,19.16
2022-10-15T22:38:40.644Z,19.57
2022-10-15T22:41:09.767Z,19.24
2022-10-15T22:43:38.813Z,19.23
2022-10-15T22:46:07.391Z,18.75
2022-10-15T22:48:34.916Z,18.93
2022-10-15T22:51:03.479Z,19.39
2022-10-15T22:53:31.019Z,19.49
2022-10-15T22:55:58.574Z,19.03
2022-10-15T22:58:27.319Z,18.59
2022-10-15T23:00:56.153Z,18.93
2022-10-15T23:03:23.666Z,18.15
2022-10-15T23:05:54.789Z,18.56
2022-10-15T23:08:22.769Z,18.57
2022-10-15T23:10:50.225Z,18.92
2022-10-15T23:13:17.689Z,18.60
2022-10-15T23:15:45.055Z,18.67
2022-10-15T23:18:13.813Z,18.55
2022-10-15T23:20:41.315Z,18.42
2022-10-15T23:23:08.696Z,18.00
2022-10-15T23:25:39.775Z,18.36
2022-10-15T23:28:07.208Z,17.95
2022-10-15T23:30:43.720Z,18.16
2022-10-15T23:33:11.095Z,18.57
2022-10-15T23:35:39.803Z,18.67
2022-10-15T23:38:07.196Z,18.46
2022-10-15T23:40:34.596Z,18.27
2022-10-15T23:43:02.277Z,18.28
2022-10-15T23:45:29.652Z,18.19
2022-10-15T23:47:57.051Z,18.18
2022-10-15T23:50:24.448Z,18.64
2022-10-15T23:52:53.188Z,18.40
2022-10-15T23:55:20.593Z,18.00
2022-10-15T23:57:48.021Z,18.39
